createdAt,value
2019-04-06T00:00:07.614Z,33.43
2019-04-06T00:02:40.134Z,31.90
2019-04-06T00:05:11.381Z,38.23
2019-04-06T00:07:41.937Z,34.00
2019-04-06T00:10:12.865Z,35.60
2019-04-06T00:12:43.459Z,32.10
2019-04-06T00:15:14.271Z,41.97
2019-04-06T00:17:44.787Z,31.50
2019-04-06T00:20:15.443Z,36.87
2019-04-06T00:22:46.074Z,32.30
2019-04-06T00:25:16.699Z,33.67
2019-04-06T00:27:47.284Z,34.27
2019-04-06T00:30:18.565Z,36.73
2019-04-06T00:32:56.599Z,30.93
2019-04-06T00:35:27.195Z,33.90
2019-04-06T00:37:57.805Z,33.43
2019-04-06T00:40:28.343Z,33.07
2019-04-06T00:42:58.939Z,35.30
2019-04-06T00:45:29.426Z,33.40
2019-04-06T00:47:59.990Z,34.10
2019-04-06T00:50:30.561Z,39.50
2019-04-06T00:53:01.121Z,32.63
2019-04-06T00:55:31.592Z,30.80
2019-04-06T00:58:02.088Z,35.03
2019-04-06T01:00:32.896Z,36.53
2019-04-06T01:03:03.290Z,36.67
2019-04-06T01:05:34.097Z,34.47
2019-04-06T01:08:04.865Z,33.97
2019-04-06T01:10:35.458Z,39.43
2019-04-06T01:13:05.948Z,34.27
2019-04-06T01:15:36.588Z,41.63
2019-04-06T01:18:09.792Z,36.53
2019-04-06T01:20:40.463Z,33.33
2019-04-06T01:23:11.096Z,38.77
2019-04-06T01:25:41.777Z,32.73
2019-04-06T01:28:12.286Z,35.70
2019-04-06T01:30:42.780Z,40.17
2019-04-06T01:33:13.396Z,36.47
2019-04-06T01:35:43.995Z,38.10
2019-04-06T01:38:14.573Z,31.90
2019-04-06T01:40:45.058Z,34.43
2019-04-06T01:43:15.701Z,35.73
2019-04-06T01:45:46.376Z,31.33
2019-04-06T01:48:17.062Z,37.57
2019-04-06T01:50:47.627Z,35.27
2019-04-06T01:53:19.152Z,30.63
2019-04-06T01:55:51.491Z,35.30
2019-04-06T01:58:22.028Z,31.90
2019-04-06T02:01:03.313Z,40.53
2019-04-06T02:03:33.864Z,33.60
2019-04-06T02:06:04.758Z,39.20
2019-04-06T02:08:35.544Z,31.63
2019-04-06T02:11:06.167Z,33.70
2019-04-06T02:13:37.768Z,32.43
2019-04-06T02:16:08.370Z,44.73
2019-04-06T02:18:38.954Z,34.47
2019-04-06T02:21:09.453Z,32.80
2019-04-06T02:23:39.958Z,34.43
2019-04-06T02:26:10.570Z,31.77
2019-04-06T02:28:41.144Z,37.63
2019-04-06T02:31:20.590Z,31.63
2019-04-06T02:34:10.035Z,27.43
2019-04-06T02:36:52.845Z,31.63
2019-04-06T02:39:35.294Z,36.63
2019-04-06T02:42:10.309Z,33.53
2019-04-06T02:44:40.994Z,29.93
2019-04-06T02:47:11.549Z,39.60
2019-04-06T02:49:42.133Z,34.37
2019-04-06T02:52:12.605Z,37.27
2019-04-06T02:54:43.348Z,37.43
2019-04-06T02:57:13.954Z,31.53
2019-04-06T02:59:44.542Z,39.10
2019-04-06T03:02:15.112Z,36.10
2019-04-06T03:04:45.660Z,33.57
2019-04-06T03:07:16.388Z,35.37
2019-04-06T03:09:47.085Z,34.67
2019-04-06T03:12:17.675Z,35.17
2019-04-06T03:14:48.588Z,36.23
2019-04-06T03:17:19.201Z,31.07
2019-04-06T03:19:49.824Z,31.63
2019-04-06T03:22:20.430Z,32.43
2019-04-06T03:24:51.356Z,37.87
2019-04-06T03:27:22.027Z,42.33
2019-04-06T03:29:58.085Z,39.70
2019-04-06T03:32:24.686Z,38.87
2019-04-06T03:34:55.665Z,33.57
2019-04-06T03:37:26.513Z,39.07
2019-04-06T03:39:57.094Z,40.70
2019-04-06T03:42:29.523Z,36.60
2019-04-06T03:45:00.025Z,33.90
2019-04-06T03:47:32.856Z,37.90
2019-04-06T03:50:03.509Z,36.07
2019-04-06T03:52:35.041Z,39.87
2019-04-06T03:55:07.525Z,37.43
2019-04-06T03:57:38.009Z,35.07
2019-04-06T04:00:09.104Z,37.03
2019-04-06T04:02:39.632Z,37.53
2019-04-06T04:05:10.197Z,37.00
2019-04-06T04:07:40.736Z,34.97
2019-04-06T04:10:16.350Z,40.60
2019-04-06T04:12:46.914Z,33.87
2019-04-06T04:15:17.528Z,37.40
2019-04-06T04:17:48.311Z,35.93
2019-04-06T04:20:18.731Z,38.00
2019-04-06T04:22:49.297Z,36.33
2019-04-06T04:25:19.716Z,44.60
2019-04-06T04:27:50.258Z,35.53
2019-04-06T04:30:32.217Z,36.67
2019-04-06T04:32:53.065Z,37.73
2019-04-06T04:35:23.452Z,39.47
2019-04-06T04:37:54.098Z,36.83
2019-04-06T04:40:24.645Z,40.33
2019-04-06T04:42:55.284Z,37.73
2019-04-06T04:45:25.759Z,36.43
2019-04-06T04:47:56.229Z,36.83
2019-04-06T04:50:26.839Z,37.17
2019-04-06T04:52:57.438Z,38.23
2019-04-06T04:55:27.985Z,34.80
2019-04-06T04:57:59.470Z,41.47
2019-04-06T05:00:30.052Z,37.63
2019-04-06T05:03:00.549Z,37.50
2019-04-06T05:05:31.128Z,39.37
2019-04-06T05:08:01.646Z,37.10
2019-04-06T05:10:32.211Z,33.77
2019-04-06T05:13:02.727Z,40.60
2019-04-06T05:15:55.871Z,39.43
2019-04-06T05:18:26.473Z,40.00
2019-04-06T05:20:57.029Z,34.20
2019-04-06T05:23:27.642Z,37.43
2019-04-06T05:25:58.262Z,34.93
2019-04-06T05:28:28.769Z,33.17
2019-04-06T05:30:59.296Z,33.77
2019-04-06T05:33:29.988Z,36.00
2019-04-06T05:36:00.555Z,38.43
2019-04-06T05:38:31.135Z,41.43
2019-04-06T05:41:01.994Z,34.37
2019-04-06T05:43:32.586Z,39.93
2019-04-06T05:46:03.481Z,40.20
2019-04-06T05:48:33.981Z,39.80
2019-04-06T05:51:04.866Z,35.10
2019-04-06T05:53:35.593Z,37.87
2019-04-06T05:56:06.268Z,35.60
2019-04-06T05:58:39.913Z,34.33
2019-04-06T06:01:11.193Z,43.30
2019-04-06T06:03:42.173Z,35.27
2019-04-06T06:06:13.339Z,35.37
2019-04-06T06:08:44.150Z,35.83
2019-04-06T06:11:14.551Z,34.70
2019-04-06T06:13:45.117Z,39.23
2019-04-06T06:16:15.734Z,36.40
2019-04-06T06:18:46.332Z,37.70
2019-04-06T06:21:16.742Z,33.83
2019-04-06T06:23:47.666Z,34.23
2019-04-06T06:26:18.265Z,36.37
2019-04-06T06:28:49.286Z,36.43
2019-04-06T06:31:19.981Z,36.87
2019-04-06T06:33:50.732Z,37.50
2019-04-06T06:36:21.352Z,37.67
2019-04-06T06:38:51.980Z,35.87
2019-04-06T06:41:22.507Z,36.83
2019-04-06T06:43:52.945Z,34.00
2019-04-06T06:46:23.528Z,30.63
2019-04-06T06:48:54.205Z,34.47
2019-04-06T06:51:24.798Z,35.03
2019-04-06T06:53:55.494Z,39.10
2019-04-06T06:56:26.428Z,32.57
2019-04-06T06:58:57.188Z,39.43
2019-04-06T07:01:28.074Z,37.20
2019-04-06T07:03:58.969Z,34.23
2019-04-06T07:06:29.676Z,35.47
2019-04-06T07:09:00.644Z,32.00
2019-04-06T07:11:33.055Z,38.57
2019-04-06T07:14:03.829Z,29.77
2019-04-06T07:16:34.388Z,29.57
2019-04-06T07:19:04.934Z,31.60
2019-04-06T07:21:35.712Z,39.20
2019-04-06T07:24:06.643Z,34.77
2019-04-06T07:26:37.433Z,34.67
2019-04-06T07:29:08.013Z,34.67
2019-04-06T07:31:38.632Z,33.47
2019-04-06T07:34:09.334Z,33.67
2019-04-06T07:36:39.980Z,37.20
2019-04-06T07:39:10.622Z,30.53
2019-04-06T07:41:41.290Z,29.73
2019-04-06T07:44:11.841Z,30.90
2019-04-06T07:46:42.470Z,27.80
2019-04-06T07:49:13.179Z,31.03
2019-04-06T07:51:43.660Z,28.83
2019-04-06T07:54:14.348Z,28.03
2019-04-06T07:56:44.916Z,32.33
2019-04-06T07:59:15.472Z,28.20
2019-04-06T08:01:48.356Z,23.63
2019-04-06T08:04:18.661Z,32.40
2019-04-06T08:06:49.481Z,23.83
2019-04-06T08:09:20.082Z,27.73
2019-04-06T08:11:50.713Z,27.20
2019-04-06T08:14:21.427Z,31.33
2019-04-06T08:16:52.300Z,27.73
2019-04-06T08:19:26.432Z,27.33
2019-04-06T08:21:57.034Z,30.53
2019-04-06T08:24:27.716Z,25.50
2019-04-06T08:26:58.291Z,24.73
2019-04-06T08:29:29.183Z,27.93
2019-04-06T08:32:00.019Z,27.10
2019-04-06T08:34:30.444Z,25.43
2019-04-06T08:37:01.193Z,30.13
2019-04-06T08:39:32.300Z,24.97
2019-04-06T08:42:03.128Z,26.10
2019-04-06T08:44:33.891Z,25.67
2019-04-06T08:47:04.541Z,22.13
2019-04-06T08:49:35.289Z,24.67
2019-04-06T08:52:06.181Z,21.07
2019-04-06T08:54:36.815Z,19.83
2019-04-06T08:57:07.484Z,23.20
2019-04-06T08:59:38.148Z,28.00
2019-04-06T09:02:08.857Z,19.93
2019-04-06T09:04:39.814Z,20.57
2019-04-06T09:07:10.453Z,16.03
2019-04-06T09:09:41.089Z,25.90
2019-04-06T09:12:12.113Z,20.00
2019-04-06T09:14:43.085Z,23.40
2019-04-06T09:17:13.858Z,22.00
2019-04-06T09:19:44.567Z,17.13
2019-04-06T09:22:16.246Z,32.13
2019-04-06T09:24:47.028Z,21.10
2019-04-06T09:27:18.116Z,19.93
2019-04-06T09:29:48.780Z,23.97
2019-04-06T09:32:19.424Z,15.17
2019-04-06T09:34:50.255Z,20.00
2019-04-06T09:37:21.030Z,18.00
2019-04-06T09:39:51.679Z,16.43
2019-04-06T09:42:22.408Z,18.93
2019-04-06T09:45:12.098Z,19.87
2019-04-06T09:47:56.619Z,12.80
2019-04-06T09:50:46.537Z,17.97
2019-04-06T09:53:26.394Z,17.97
2019-04-06T09:56:09.899Z,16.90
2019-04-06T09:58:48.589Z,16.03
2019-04-06T10:01:39.475Z,13.00
2019-04-06T10:04:29.338Z,22.17
2019-04-06T10:07:19.117Z,19.33
2019-04-06T10:10:09.212Z,24.63
2019-04-06T10:12:54.065Z,13.00
2019-04-06T10:15:39.268Z,16.70
2019-04-06T10:18:29.215Z,18.33
2019-04-06T10:21:18.476Z,20.87
2019-04-06T10:24:08.656Z,16.57
2019-04-06T10:26:58.491Z,17.67
2019-04-06T10:29:50.155Z,18.97
2019-04-06T10:32:28.441Z,21.70
2019-04-06T10:35:08.577Z,20.27
2019-04-06T10:37:53.406Z,16.40
2019-04-06T10:40:34.338Z,22.23
2019-04-06T10:43:24.234Z,18.10
2019-04-06T10:46:14.025Z,19.37
2019-04-06T10:48:59.447Z,15.93
2019-04-06T10:51:51.680Z,20.37
2019-04-06T10:54:41.458Z,19.43
2019-04-06T10:57:28.129Z,19.43
2019-04-06T11:00:18.296Z,28.27
2019-04-06T11:03:00.885Z,24.90
2019-04-06T11:05:41.881Z,18.90
2019-04-06T11:08:22.877Z,22.37
2019-04-06T11:11:09.406Z,17.37
2019-04-06T11:13:59.495Z,14.03
2019-04-06T11:16:40.893Z,18.70
2019-04-06T11:19:24.640Z,18.80
2019-04-06T11:22:16.954Z,15.93
2019-04-06T11:25:06.239Z,18.42
2019-04-06T11:27:53.239Z,24.32
2019-04-06T11:30:43.073Z,18.35
2019-04-06T11:33:20.583Z,18.60
2019-04-06T11:36:10.510Z,15.25
2019-04-06T11:39:00.104Z,17.48
2019-04-06T11:41:49.932Z,17.43
2019-04-06T11:44:39.756Z,20.77
2019-04-06T11:47:30.908Z,15.48
2019-04-06T11:50:07.990Z,14.90
2019-04-06T11:52:58.038Z,21.10
2019-04-06T11:55:48.244Z,24.12
2019-04-06T11:58:33.888Z,16.32
2019-04-06T12:01:23.897Z,20.45
2019-04-06T12:04:10.860Z,16.48
2019-04-06T12:06:48.311Z,21.25
2019-04-06T12:09:27.335Z,16.52
2019-04-06T12:12:17.628Z,21.57
2019-04-06T12:15:03.326Z,24.77
2019-04-06T12:17:54.345Z,21.87
2019-04-06T12:20:44.843Z,15.32
2019-04-06T12:23:34.503Z,17.80
2019-04-06T12:26:11.687Z,21.10
2019-04-06T12:28:48.783Z,24.80
2019-04-06T12:31:32.095Z,15.03
2019-04-06T12:34:16.489Z,18.42
2019-04-06T12:37:01.731Z,17.00
2019-04-06T12:39:52.701Z,18.40
2019-04-06T12:42:37.199Z,18.73
2019-04-06T12:45:27.386Z,18.98
2019-04-06T12:48:13.987Z,21.87
2019-04-06T12:50:57.762Z,14.87
2019-04-06T12:53:37.845Z,22.22
2019-04-06T12:56:27.916Z,18.30
2019-04-06T12:59:07.339Z,19.85
2019-04-06T13:01:50.089Z,18.90
2019-04-06T13:04:31.509Z,16.23
2019-04-06T13:07:21.299Z,13.62
2019-04-06T13:10:11.132Z,20.37
2019-04-06T13:13:00.986Z,15.40
2019-04-06T13:15:37.566Z,18.15
2019-04-06T13:18:27.447Z,16.23
2019-04-06T13:21:17.240Z,18.20
2019-04-06T13:24:00.366Z,16.20
2019-04-06T13:26:42.259Z,16.90
2019-04-06T13:29:32.046Z,19.07
2019-04-06T13:32:22.021Z,15.55
2019-04-06T13:35:02.809Z,16.37
2019-04-06T13:37:52.709Z,20.65
2019-04-06T13:40:42.718Z,21.45
2019-04-06T13:43:29.018Z,17.40
2019-04-06T13:46:19.164Z,35.28
2019-04-06T13:49:09.069Z,20.10
2019-04-06T13:51:58.757Z,17.07
2019-04-06T13:54:43.541Z,17.15
2019-04-06T13:57:25.992Z,18.48
2019-04-06T14:00:15.699Z,18.48
2019-04-06T14:03:05.853Z,17.30
2019-04-06T14:05:43.615Z,19.70
2019-04-06T14:08:33.828Z,13.85
2019-04-06T14:11:24.221Z,18.42
2019-04-06T14:14:14.118Z,15.10
2019-04-06T14:16:54.638Z,12.88
2019-04-06T14:19:38.760Z,17.35
2019-04-06T14:22:28.707Z,18.32
2019-04-06T14:25:12.615Z,17.20
2019-04-06T14:28:04.316Z,23.98
2019-04-06T14:30:54.408Z,23.65
2019-04-06T14:33:44.399Z,21.65
2019-04-06T14:36:31.032Z,16.85
2019-04-06T14:39:21.086Z,13.83
2019-04-06T14:42:03.850Z,16.90
2019-04-06T14:44:53.653Z,22.77
2019-04-06T14:47:43.575Z,21.70
2019-04-06T14:50:35.220Z,22.45
2019-04-06T14:53:24.125Z,14.95
2019-04-06T14:56:01.848Z,17.27
2019-04-06T14:58:51.759Z,21.10
2019-04-06T15:01:42.385Z,24.40
2019-04-06T15:04:22.825Z,18.17
2019-04-06T15:07:11.463Z,18.23
2019-04-06T15:09:55.872Z,23.10
2019-04-06T15:12:42.132Z,17.73
2019-04-06T15:15:32.050Z,19.82
2019-04-06T15:18:22.076Z,15.60
2019-04-06T15:21:12.011Z,15.03
2019-04-06T15:23:54.641Z,15.93
2019-04-06T15:26:40.817Z,24.10
2019-04-06T15:29:30.841Z,18.80
2019-04-06T15:32:20.962Z,26.00
2019-04-06T15:35:10.934Z,20.50
2019-04-06T15:38:00.666Z,18.32
2019-04-06T15:40:51.670Z,17.55
2019-04-06T15:43:30.199Z,24.20
2019-04-06T15:46:20.203Z,23.83
2019-04-06T15:49:09.598Z,13.80
2019-04-06T15:52:10.259Z,17.15
2019-04-06T15:54:44.927Z,17.42
2019-04-06T15:57:34.746Z,18.05
2019-04-06T16:00:15.290Z,17.05
2019-04-06T16:03:00.106Z,22.35
2019-04-06T16:05:37.709Z,21.87
2019-04-06T16:08:28.809Z,20.37
2019-04-06T16:11:20.038Z,16.12
2019-04-06T16:14:11.315Z,25.12
2019-04-06T16:16:47.531Z,20.40
2019-04-06T16:19:37.211Z,20.75
2019-04-06T16:22:28.343Z,16.97
2019-04-06T16:25:03.564Z,25.08
2019-04-06T16:27:53.524Z,19.57
2019-04-06T16:30:43.287Z,21.12
2019-04-06T16:33:33.432Z,21.50
2019-04-06T16:36:15.395Z,19.87
2019-04-06T16:39:01.170Z,22.63
2019-04-06T16:41:52.628Z,23.87
2019-04-06T16:44:28.151Z,21.97
2019-04-06T16:47:13.666Z,34.67
2019-04-06T16:50:03.790Z,20.90
2019-04-06T16:52:53.624Z,25.47
2019-04-06T16:55:29.367Z,18.33
2019-04-06T16:58:19.129Z,21.30
2019-04-06T17:01:00.854Z,22.83
2019-04-06T17:03:46.836Z,26.17
2019-04-06T17:06:37.197Z,19.13
2019-04-06T17:09:17.727Z,23.20
2019-04-06T17:12:07.681Z,23.27
2019-04-06T17:14:57.518Z,25.57
2019-04-06T17:17:47.623Z,30.50
2019-04-06T17:20:37.915Z,35.57
2019-04-06T17:23:28.295Z,27.43
2019-04-06T17:26:07.673Z,24.40
2019-04-06T17:28:49.578Z,31.00
2019-04-06T17:31:26.544Z,30.67
2019-04-06T17:34:16.639Z,30.43
2019-04-06T17:36:56.194Z,33.00
2019-04-06T17:39:35.067Z,32.43
2019-04-06T17:42:25.047Z,31.67
2019-04-06T17:45:15.206Z,30.00
2019-04-06T17:48:05.158Z,35.07
2019-04-06T17:50:47.791Z,34.17
2019-04-06T17:53:37.640Z,32.40
2019-04-06T17:56:27.602Z,36.33
2019-04-06T17:59:17.586Z,32.07
2019-04-06T18:02:04.310Z,39.37
2019-04-06T18:04:54.301Z,35.57
2019-04-06T18:07:33.942Z,42.33
2019-04-06T18:10:16.455Z,39.60
2019-04-06T18:12:55.549Z,39.60
2019-04-06T18:15:26.507Z,43.47
2019-04-06T18:18:03.176Z,46.13
2019-04-06T18:20:34.570Z,46.87
2019-04-06T18:23:06.733Z,56.50
2019-04-06T18:25:39.267Z,51.40
2019-04-06T18:28:10.637Z,48.97
2019-04-06T18:30:41.796Z,53.40
2019-04-06T18:33:20.205Z,45.70
2019-04-06T18:35:51.092Z,49.33
2019-04-06T18:38:29.881Z,58.83
2019-04-06T18:41:00.847Z,51.60
2019-04-06T18:43:34.533Z,54.30
2019-04-06T18:46:06.751Z,55.13
2019-04-06T18:48:42.037Z,56.93
2019-04-06T18:51:13.373Z,54.33
2019-04-06T18:53:44.371Z,58.73
2019-04-06T18:56:15.567Z,67.20
2019-04-06T18:58:48.359Z,72.40
2019-04-06T19:01:19.320Z,62.47
2019-04-06T19:03:50.039Z,49.97
2019-04-06T19:06:21.697Z,53.97
2019-04-06T19:08:52.578Z,63.73
2019-04-06T19:11:24.668Z,51.87
2019-04-06T19:13:55.527Z,50.27
2019-04-06T19:16:29.031Z,53.87
2019-04-06T19:19:00.352Z,48.60
2019-04-06T19:21:32.105Z,50.33
2019-04-06T19:24:04.352Z,47.93
2019-04-06T19:26:37.978Z,47.97
2019-04-06T19:29:09.851Z,49.30
2019-04-06T19:31:43.313Z,46.90
2019-04-06T19:34:15.173Z,55.63
2019-04-06T19:36:46.061Z,51.70
2019-04-06T19:39:18.059Z,58.53
2019-04-06T19:41:49.479Z,59.67
2019-04-06T19:44:21.677Z,64.73
2019-04-06T19:46:52.950Z,67.23
2019-04-06T19:49:24.085Z,66.27
2019-04-06T19:51:55.430Z,66.97
2019-04-06T19:54:26.817Z,68.67
2019-04-06T19:56:57.634Z,62.83
2019-04-06T19:59:28.150Z,56.27
2019-04-06T20:01:58.946Z,52.60
2019-04-06T20:04:29.817Z,63.10
2019-04-06T20:07:00.512Z,58.70
2019-04-06T20:09:31.952Z,51.33
2019-04-06T20:12:05.666Z,50.93
2019-04-06T20:14:35.391Z,48.87
2019-04-06T20:17:06.891Z,42.90
2019-04-06T20:19:37.784Z,44.60
2019-04-06T20:22:09.431Z,48.67
2019-04-06T20:24:40.008Z,39.93
2019-04-06T20:27:10.802Z,42.23
2019-04-06T20:29:42.386Z,35.07
2019-04-06T20:32:13.334Z,45.97
2019-04-06T20:34:44.425Z,48.20
2019-04-06T20:37:16.077Z,39.10
2019-04-06T20:39:46.915Z,39.47
2019-04-06T20:42:18.261Z,44.40
2019-04-06T20:44:49.042Z,44.53
2019-04-06T20:47:19.968Z,46.80
2019-04-06T20:49:52.670Z,52.83
2019-04-06T20:52:24.037Z,48.63
2019-04-06T20:54:54.836Z,46.27
2019-04-06T20:57:25.779Z,51.73
2019-04-06T20:59:56.438Z,51.07
2019-04-06T21:02:28.134Z,47.60
2019-04-06T21:04:58.960Z,54.37
2019-04-06T21:07:29.816Z,50.60
2019-04-06T21:10:00.735Z,48.80
2019-04-06T21:12:31.971Z,51.30
2019-04-06T21:15:15.003Z,50.83
2019-04-06T21:17:35.506Z,53.37
2019-04-06T21:20:07.358Z,49.70
2019-04-06T21:22:38.547Z,54.13
2019-04-06T21:25:09.367Z,46.80
2019-04-06T21:27:43.390Z,51.23
2019-04-06T21:30:14.351Z,45.40
2019-04-06T21:32:44.890Z,53.13
2019-04-06T21:35:15.908Z,48.93
2019-04-06T21:37:47.165Z,46.33
2019-04-06T21:40:18.031Z,50.47
2019-04-06T21:42:48.671Z,48.93
2019-04-06T21:45:19.659Z,52.30
2019-04-06T21:47:51.459Z,52.00
2019-04-06T21:50:22.058Z,51.77
2019-04-06T21:52:54.228Z,57.60
2019-04-06T21:55:24.798Z,51.03
2019-04-06T21:57:55.908Z,51.57
2019-04-06T22:00:45.781Z,54.17
2019-04-06T22:03:16.877Z,55.27
2019-04-06T22:05:49.771Z,54.40
2019-04-06T22:08:24.070Z,59.20
2019-04-06T22:10:56.775Z,54.20
2019-04-06T22:13:27.382Z,47.90
2019-04-06T22:15:58.193Z,50.13
2019-04-06T22:18:28.692Z,52.43
2019-04-06T22:20:59.603Z,50.80
2019-04-06T22:23:41.000Z,51.43
2019-04-06T22:26:02.872Z,50.57
2019-04-06T22:28:34.929Z,49.10
2019-04-06T22:31:06.502Z,62.87
2019-04-06T22:33:38.193Z,46.33
2019-04-06T22:36:08.970Z,48.70
2019-04-06T22:38:40.017Z,49.93
2019-04-06T22:41:10.674Z,49.77
2019-04-06T22:43:41.235Z,51.30
2019-04-06T22:46:12.453Z,52.13
2019-04-06T22:48:44.214Z,56.77
2019-04-06T22:51:14.886Z,53.80
2019-04-06T22:53:45.504Z,49.33
2019-04-06T22:56:16.640Z,52.33
2019-04-06T22:58:47.288Z,53.37
2019-04-06T23:01:18.567Z,55.43
2019-04-06T23:04:08.737Z,48.63
2019-04-06T23:06:42.939Z,49.03
2019-04-06T23:09:13.512Z,47.27
2019-04-06T23:11:44.665Z,54.57
2019-04-06T23:14:16.844Z,53.43
2019-04-06T23:16:47.666Z,48.47
2019-04-06T23:19:18.282Z,44.90
2019-04-06T23:21:48.921Z,47.47
2019-04-06T23:24:20.540Z,50.33
2019-04-06T23:26:51.527Z,49.27
2019-04-06T23:29:24.545Z,49.70
2019-04-06T23:31:55.260Z,48.43
2019-04-06T23:34:25.931Z,48.30
2019-04-06T23:36:56.866Z,58.37
2019-04-06T23:39:27.640Z,51.23
2019-04-06T23:41:58.874Z,56.33
2019-04-06T23:44:29.539Z,48.17
2019-04-06T23:47:00.467Z,50.10
2019-04-06T23:49:31.087Z,49.17
2019-04-06T23:52:01.609Z,48.57
2019-04-06T23:54:32.179Z,46.47
2019-04-06T23:57:02.802Z,48.70
2019-04-06T23:59:33.923Z,52.50
